< < Back
Terminal Aerodrome Forecast


Current Version              Previous Versions:   1  2  3  4  5  6  7  8  9  

Terminal Aerodrome Forecast

828
FTUS44 KBMX 061000 AAA
TAFANB
TAF AMD
KANB 061040Z 0611/0706 36008KT P6SM BKN025
     FM061500 35008KT P6SM BKN050
     FM062100 32006KT P6SM SKC=



Latest METAR

332
SAUS70 KWBC 061600 RRP
MTRANB
METAR KANB 061553Z AUTO VRB04KT 10SM OVC019 M01/M06 A3051 RMK AO2 SLP345
T10061056


USA.gov is the U.S. government's official web portal to all federal, state and local government web resources and services.